sensor_id;sensor_type;location;lat;lon;timestamp;P1;durP1;ratioP1;P2;durP2;ratioP2
10387;SDS011;5240;51.128;4.566;2023-05-16T00:01:16;17.20;;;3.33;;
10387;SDS011;5240;51.128;4.566;2023-05-16T00:03:43;14.45;;;3.55;;
10387;SDS011;5240;51.128;4.566;2023-05-16T00:06:10;14.70;;;3.35;;
10387;SDS011;5240;51.128;4.566;2023-05-16T00:08:37;12.63;;;3.55;;
10387;SDS011;5240;51.128;4.566;2023-05-16T00:11:05;15.95;;;3.72;;
10387;SDS011;5240;51.128;4.566;2023-05-16T00:13:33;16.00;;;3.60;;
10387;SDS011;5240;51.128;4.566;2023-05-16T00:16:00;13.93;;;3.30;;
10387;SDS011;5240;51.128;4.566;2023-05-16T00:18:29;10.15;;;3.00;;
10387;SDS011;5240;51.128;4.566;2023-05-16T00:20:56;14.00;;;3.35;;
10387;SDS011;5240;51.128;4.566;2023-05-16T00:23:23;17.83;;;4.07;;
10387;SDS011;5240;51.128;4.566;2023-05-16T00:25:50;15.32;;;3.35;;
10387;SDS011;5240;51.128;4.566;2023-05-16T00:28:17;11.57;;;3.15;;
10387;SDS011;5240;51.128;4.566;2023-05-16T00:30:46;18.15;;;3.08;;
10387;SDS011;5240;51.128;4.566;2023-05-16T00:33:13;14.98;;;3.42;;
10387;SDS011;5240;51.128;4.566;2023-05-16T00:35:40;17.55;;;3.83;;
10387;SDS011;5240;51.128;4.566;2023-05-16T00:38:07;16.63;;;3.58;;
10387;SDS011;5240;51.128;4.566;2023-05-16T00:40:34;13.02;;;3.78;;
10387;SDS011;5240;51.128;4.566;2023-05-16T00:43:01;14.93;;;3.33;;
10387;SDS011;5240;51.128;4.566;2023-05-16T00:45:28;17.42;;;3.63;;
10387;SDS011;5240;51.128;4.566;2023-05-16T00:47:57;17.20;;;3.65;;
10387;SDS011;5240;51.128;4.566;2023-05-16T00:50:24;12.70;;;3.30;;
10387;SDS011;5240;51.128;4.566;2023-05-16T00:52:51;15.80;;;3.25;;
10387;SDS011;5240;51.128;4.566;2023-05-16T00:55:18;13.30;;;3.00;;
10387;SDS011;5240;51.128;4.566;2023-05-16T00:57:46;11.93;;;3.60;;
10387;SDS011;5240;51.128;4.566;2023-05-16T01:00:13;11.75;;;3.38;;
10387;SDS011;5240;51.128;4.566;2023-05-16T01:02:40;15.18;;;3.67;;
10387;SDS011;5240;51.128;4.566;2023-05-16T01:05:09;18.95;;;3.70;;
10387;SDS011;5240;51.128;4.566;2023-05-16T01:07:37;13.32;;;3.30;;
10387;SDS011;5240;51.128;4.566;2023-05-16T01:10:04;13.80;;;3.53;;
10387;SDS011;5240;51.128;4.566;2023-05-16T01:12:35;14.40;;;3.05;;
10387;SDS011;5240;51.128;4.566;2023-05-16T01:15:07;16.52;;;4.25;;
10387;SDS011;5240;51.128;4.566;2023-05-16T01:17:39;14.50;;;4.43;;
10387;SDS011;5240;51.128;4.566;2023-05-16T01:20:19;10.88;;;3.15;;
10387;SDS011;5240;51.128;4.566;2023-05-16T01:23:04;16.67;;;3.63;;
10387;SDS011;5240;51.128;4.566;2023-05-16T01:25:45;9.02;;;2.78;;
10387;SDS011;5240;51.128;4.566;2023-05-16T01:28:23;13.82;;;3.22;;
10387;SDS011;5240;51.128;4.566;2023-05-16T01:30:52;14.77;;;3.50;;
10387;SDS011;5240;51.128;4.566;2023-05-16T01:33:19;11.20;;;3.13;;
10387;SDS011;5240;51.128;4.566;2023-05-16T01:35:49;14.25;;;3.63;;
10387;SDS011;5240;51.128;4.566;2023-05-16T01:38:24;10.73;;;2.83;;
10387;SDS011;5240;51.128;4.566;2023-05-16T01:40:53;14.85;;;3.40;;
10387;SDS011;5240;51.128;4.566;2023-05-16T01:43:28;16.85;;;3.30;;
10387;SDS011;5240;51.128;4.566;2023-05-16T01:46:01;11.35;;;2.75;;
10387;SDS011;5240;51.128;4.566;2023-05-16T01:48:34;16.13;;;3.75;;
10387;SDS011;5240;51.128;4.566;2023-05-16T01:51:06;11.85;;;3.08;;
10387;SDS011;5240;51.128;4.566;2023-05-16T01:53:36;12.82;;;3.45;;
10387;SDS011;5240;51.128;4.566;2023-05-16T01:56:04;11.02;;;3.33;;
10387;SDS011;5240;51.128;4.566;2023-05-16T01:58:38;17.02;;;3.10;;
10387;SDS011;5240;51.128;4.566;2023-05-16T02:01:07;14.23;;;3.22;;
10387;SDS011;5240;51.128;4.566;2023-05-16T02:03:34;12.65;;;3.13;;
10387;SDS011;5240;51.128;4.566;2023-05-16T02:06:01;14.20;;;2.97;;
10387;SDS011;5240;51.128;4.566;2023-05-16T02:08:29;8.57;;;3.05;;
10387;SDS011;5240;51.128;4.566;2023-05-16T02:10:57;10.77;;;3.25;;
10387;SDS011;5240;51.128;4.566;2023-05-16T02:13:24;20.02;;;3.58;;
10387;SDS011;5240;51.128;4.566;2023-05-16T02:15:52;11.45;;;2.80;;
10387;SDS011;5240;51.128;4.566;2023-05-16T02:18:19;14.35;;;2.72;;
10387;SDS011;5240;51.128;4.566;2023-05-16T02:20:47;18.77;;;4.25;;
10387;SDS011;5240;51.128;4.566;2023-05-16T02:23:14;14.25;;;2.85;;
10387;SDS011;5240;51.128;4.566;2023-05-16T02:25:41;20.50;;;3.33;;
10387;SDS011;5240;51.128;4.566;2023-05-16T02:28:08;10.98;;;2.45;;
10387;SDS011;5240;51.128;4.566;2023-05-16T02:30:35;11.55;;;3.30;;
10387;SDS011;5240;51.128;4.566;2023-05-16T02:33:04;13.40;;;3.58;;
10387;SDS011;5240;51.128;4.566;2023-05-16T02:35:31;10.65;;;3.42;;
10387;SDS011;5240;51.128;4.566;2023-05-16T02:37:58;16.08;;;3.20;;
10387;SDS011;5240;51.128;4.566;2023-05-16T02:40:25;11.63;;;3.00;;
10387;SDS011;5240;51.128;4.566;2023-05-16T02:42:52;20.60;;;3.63;;
10387;SDS011;5240;51.128;4.566;2023-05-16T02:45:19;16.05;;;3.42;;
10387;SDS011;5240;51.128;4.566;2023-05-16T02:47:46;12.63;;;3.15;;
10387;SDS011;5240;51.128;4.566;2023-05-16T02:50:14;16.80;;;3.53;;
10387;SDS011;5240;51.128;4.566;2023-05-16T02:52:41;12.82;;;2.95;;
10387;SDS011;5240;51.128;4.566;2023-05-16T02:55:09;16.33;;;3.70;;
10387;SDS011;5240;51.128;4.566;2023-05-16T02:57:36;13.05;;;3.30;;
10387;SDS011;5240;51.128;4.566;2023-05-16T03:00:04;11.85;;;2.90;;
10387;SDS011;5240;51.128;4.566;2023-05-16T03:02:34;14.95;;;3.35;;
10387;SDS011;5240;51.128;4.566;2023-05-16T03:05:01;13.07;;;2.60;;
10387;SDS011;5240;51.128;4.566;2023-05-16T03:07:30;14.93;;;3.25;;
10387;SDS011;5240;51.128;4.566;2023-05-16T03:09:57;13.65;;;3.28;;
10387;SDS011;5240;51.128;4.566;2023-05-16T03:12:25;10.25;;;3.17;;
10387;SDS011;5240;51.128;4.566;2023-05-16T03:14:52;12.27;;;2.92;;
10387;SDS011;5240;51.128;4.566;2023-05-16T03:17:19;11.00;;;3.05;;
10387;SDS011;5240;51.128;4.566;2023-05-16T03:19:46;13.98;;;3.30;;
10387;SDS011;5240;51.128;4.566;2023-05-16T03:22:13;14.50;;;2.78;;
10387;SDS011;5240;51.128;4.566;2023-05-16T03:24:42;12.48;;;3.10;;
10387;SDS011;5240;51.128;4.566;2023-05-16T03:27:09;11.50;;;3.08;;
10387;SDS011;5240;51.128;4.566;2023-05-16T03:29:36;11.40;;;2.88;;
10387;SDS011;5240;51.128;4.566;2023-05-16T03:32:03;14.85;;;3.00;;
10387;SDS011;5240;51.128;4.566;2023-05-16T03:34:30;16.30;;;3.50;;
10387;SDS011;5240;51.128;4.566;2023-05-16T03:36:57;13.50;;;3.47;;
10387;SDS011;5240;51.128;4.566;2023-05-16T03:39:25;12.05;;;2.97;;
10387;SDS011;5240;51.128;4.566;2023-05-16T03:41:53;15.60;;;3.00;;
10387;SDS011;5240;51.128;4.566;2023-05-16T03:44:21;8.95;;;2.60;;
10387;SDS011;5240;51.128;4.566;2023-05-16T03:46:48;16.10;;;3.05;;
10387;SDS011;5240;51.128;4.566;2023-05-16T03:49:16;12.35;;;3.22;;
10387;SDS011;5240;51.128;4.566;2023-05-16T03:51:45;11.38;;;2.75;;
10387;SDS011;5240;51.128;4.566;2023-05-16T03:54:12;10.52;;;3.58;;
10387;SDS011;5240;51.128;4.566;2023-05-16T03:56:39;15.93;;;3.08;;
10387;SDS011;5240;51.128;4.566;2023-05-16T03:59:07;16.27;;;3.17;;
10387;SDS011;5240;51.128;4.566;2023-05-16T04:01:34;17.67;;;3.15;;
10387;SDS011;5240;51.128;4.566;2023-05-16T04:04:01;12.30;;;2.70;;
10387;SDS011;5240;51.128;4.566;2023-05-16T04:06:29;17.25;;;2.95;;
10387;SDS011;5240;51.128;4.566;2023-05-16T04:08:56;13.90;;;2.92;;
10387;SDS011;5240;51.128;4.566;2023-05-16T04:11:23;13.80;;;2.90;;
10387;SDS011;5240;51.128;4.566;2023-05-16T04:13:51;11.38;;;2.78;;
10387;SDS011;5240;51.128;4.566;2023-05-16T04:16:20;17.17;;;3.63;;
10387;SDS011;5240;51.128;4.566;2023-05-16T04:18:47;9.18;;;2.70;;
10387;SDS011;5240;51.128;4.566;2023-05-16T04:21:14;10.68;;;2.83;;
10387;SDS011;5240;51.128;4.566;2023-05-16T04:23:41;9.48;;;2.42;;
10387;SDS011;5240;51.128;4.566;2023-05-16T04:26:09;9.75;;;2.60;;
10387;SDS011;5240;51.128;4.566;2023-05-16T04:28:36;11.60;;;2.97;;
10387;SDS011;5240;51.128;4.566;2023-05-16T04:31:04;11.75;;;2.67;;
10387;SDS011;5240;51.128;4.566;2023-05-16T04:33:33;16.05;;;2.50;;
10387;SDS011;5240;51.128;4.566;2023-05-16T04:36:00;13.15;;;3.38;;
10387;SDS011;5240;51.128;4.566;2023-05-16T04:38:28;14.52;;;3.03;;
10387;SDS011;5240;51.128;4.566;2023-05-16T04:40:55;14.23;;;2.72;;
10387;SDS011;5240;51.128;4.566;2023-05-16T04:43:22;12.63;;;2.50;;
10387;SDS011;5240;51.128;4.566;2023-05-16T04:45:50;11.80;;;3.30;;
10387;SDS011;5240;51.128;4.566;2023-05-16T04:48:18;14.73;;;3.03;;
10387;SDS011;5240;51.128;4.566;2023-05-16T04:50:46;11.15;;;3.33;;
10387;SDS011;5240;51.128;4.566;2023-05-16T04:53:13;9.13;;;2.92;;
10387;SDS011;5240;51.128;4.566;2023-05-16T04:55:40;13.30;;;3.03;;
10387;SDS011;5240;51.128;4.566;2023-05-16T04:58:07;10.52;;;2.58;;
10387;SDS011;5240;51.128;4.566;2023-05-16T05:00:34;12.85;;;3.30;;
10387;SDS011;5240;51.128;4.566;2023-05-16T05:03:02;10.93;;;2.58;;
10387;SDS011;5240;51.128;4.566;2023-05-16T05:05:29;11.02;;;2.50;;
10387;SDS011;5240;51.128;4.566;2023-05-16T05:07:57;10.38;;;2.95;;
10387;SDS011;5240;51.128;4.566;2023-05-16T05:10:25;9.90;;;2.90;;
10387;SDS011;5240;51.128;4.566;2023-05-16T05:12:52;13.52;;;2.60;;
10387;SDS011;5240;51.128;4.566;2023-05-16T05:15:20;9.68;;;2.65;;
10387;SDS011;5240;51.128;4.566;2023-05-16T05:17:47;16.38;;;2.92;;
10387;SDS011;5240;51.128;4.566;2023-05-16T05:20:14;15.45;;;3.25;;
10387;SDS011;5240;51.128;4.566;2023-05-16T05:22:41;10.50;;;3.03;;
10387;SDS011;5240;51.128;4.566;2023-05-16T05:25:10;13.93;;;3.08;;
10387;SDS011;5240;51.128;4.566;2023-05-16T05:27:37;11.77;;;3.03;;
10387;SDS011;5240;51.128;4.566;2023-05-16T05:30:04;15.45;;;2.65;;
10387;SDS011;5240;51.128;4.566;2023-05-16T05:32:32;12.77;;;3.20;;
10387;SDS011;5240;51.128;4.566;2023-05-16T05:34:59;13.15;;;3.20;;
10387;SDS011;5240;51.128;4.566;2023-05-16T05:37:26;12.90;;;3.15;;
10387;SDS011;5240;51.128;4.566;2023-05-16T05:39:54;10.65;;;2.85;;
10387;SDS011;5240;51.128;4.566;2023-05-16T05:42:22;10.70;;;3.08;;
10387;SDS011;5240;51.128;4.566;2023-05-16T05:44:49;11.82;;;3.03;;
10387;SDS011;5240;51.128;4.566;2023-05-16T05:47:16;14.40;;;2.90;;
10387;SDS011;5240;51.128;4.566;2023-05-16T05:49:44;11.23;;;2.95;;
10387;SDS011;5240;51.128;4.566;2023-05-16T05:52:10;13.25;;;2.90;;
10387;SDS011;5240;51.128;4.566;2023-05-16T05:54:38;10.85;;;2.45;;
10387;SDS011;5240;51.128;4.566;2023-05-16T05:57:05;13.05;;;2.90;;
10387;SDS011;5240;51.128;4.566;2023-05-16T05:59:33;11.52;;;2.78;;
10387;SDS011;5240;51.128;4.566;2023-05-16T06:02:00;12.23;;;3.15;;
10387;SDS011;5240;51.128;4.566;2023-05-16T06:04:27;15.85;;;3.40;;
10387;SDS011;5240;51.128;4.566;2023-05-16T06:06:54;9.38;;;3.17;;
10387;SDS011;5240;51.128;4.566;2023-05-16T06:09:22;8.55;;;2.67;;
10387;SDS011;5240;51.128;4.566;2023-05-16T06:11:49;10.32;;;2.33;;
10387;SDS011;5240;51.128;4.566;2023-05-16T06:14:16;13.75;;;2.50;;
10387;SDS011;5240;51.128;4.566;2023-05-16T06:16:45;12.52;;;2.60;;
10387;SDS011;5240;51.128;4.566;2023-05-16T06:19:12;9.65;;;3.25;;
10387;SDS011;5240;51.128;4.566;2023-05-16T06:21:47;11.82;;;2.85;;
10387;SDS011;5240;51.128;4.566;2023-05-16T06:24:15;17.98;;;2.88;;
10387;SDS011;5240;51.128;4.566;2023-05-16T06:26:43;10.98;;;2.55;;
10387;SDS011;5240;51.128;4.566;2023-05-16T06:29:14;10.63;;;2.88;;
10387;SDS011;5240;51.128;4.566;2023-05-16T06:39:33;11.93;;;2.63;;
10387;SDS011;5240;51.128;4.566;2023-05-16T06:42:00;10.15;;;2.50;;
10387;SDS011;5240;51.128;4.566;2023-05-16T06:47:05;11.30;;;2.60;;
10387;SDS011;5240;51.128;4.566;2023-05-16T06:49:33;9.57;;;2.20;;
10387;SDS011;5240;51.128;4.566;2023-05-16T06:52:02;10.65;;;2.53;;
10387;SDS011;5240;51.128;4.566;2023-05-16T06:54:45;9.07;;;2.30;;
10387;SDS011;5240;51.128;4.566;2023-05-16T06:57:13;7.82;;;1.98;;
10387;SDS011;5240;51.128;4.566;2023-05-16T06:59:41;9.38;;;2.28;;
10387;SDS011;5240;51.128;4.566;2023-05-16T07:02:11;6.10;;;1.90;;
10387;SDS011;5240;51.128;4.566;2023-05-16T07:04:40;11.20;;;2.45;;
10387;SDS011;5240;51.128;4.566;2023-05-16T07:07:08;9.07;;;2.28;;
10387;SDS011;5240;51.128;4.566;2023-05-16T07:09:51;12.88;;;2.78;;
10387;SDS011;5240;51.128;4.566;2023-05-16T07:12:19;8.73;;;2.53;;
10387;SDS011;5240;51.128;4.566;2023-05-16T07:14:48;10.40;;;2.35;;
10387;SDS011;5240;51.128;4.566;2023-05-16T07:17:16;8.55;;;2.30;;
10387;SDS011;5240;51.128;4.566;2023-05-16T07:19:43;9.73;;;2.40;;
10387;SDS011;5240;51.128;4.566;2023-05-16T09:03:02;8.45;;;2.13;;
10387;SDS011;5240;51.128;4.566;2023-05-16T09:05:31;4.40;;;1.83;;
10387;SDS011;5240;51.128;4.566;2023-05-16T09:08:12;4.45;;;1.73;;
10387;SDS011;5240;51.128;4.566;2023-05-16T11:14:21;3.25;;;1.45;;
10387;SDS011;5240;51.128;4.566;2023-05-16T11:16:59;6.05;;;1.90;;
10387;SDS011;5240;51.128;4.566;2023-05-16T11:19:39;4.30;;;1.60;;
10387;SDS011;5240;51.128;4.566;2023-05-16T11:22:09;6.22;;;1.95;;
10387;SDS011;5240;51.128;4.566;2023-05-16T11:24:50;5.95;;;1.80;;
10387;SDS011;5240;51.128;4.566;2023-05-16T11:30:13;7.00;;;1.70;;
10387;SDS011;5240;51.128;4.566;2023-05-16T11:32:46;5.10;;;1.63;;
10387;SDS011;5240;51.128;4.566;2023-05-16T11:35:14;4.40;;;1.80;;
10387;SDS011;5240;51.128;4.566;2023-05-16T11:37:44;3.78;;;1.80;;
10387;SDS011;5240;51.128;4.566;2023-05-16T11:40:13;6.05;;;1.60;;
10387;SDS011;5240;51.128;4.566;2023-05-16T11:45:32;3.95;;;1.75;;
10387;SDS011;5240;51.128;4.566;2023-05-16T11:48:00;3.33;;;1.60;;
10387;SDS011;5240;51.128;4.566;2023-05-16T11:50:42;3.10;;;1.70;;
10387;SDS011;5240;51.128;4.566;2023-05-16T11:55:47;3.72;;;1.50;;
10387;SDS011;5240;51.128;4.566;2023-05-16T11:58:18;9.60;;;1.80;;
10387;SDS011;5240;51.128;4.566;2023-05-16T12:00:49;3.38;;;1.48;;
10387;SDS011;5240;51.128;4.566;2023-05-16T12:03:17;4.70;;;1.70;;
10387;SDS011;5240;51.128;4.566;2023-05-16T12:05:51;4.32;;;1.63;;
10387;SDS011;5240;51.128;4.566;2023-05-16T12:08:19;3.97;;;1.50;;
10387;SDS011;5240;51.128;4.566;2023-05-16T12:10:49;5.30;;;1.45;;
10387;SDS011;5240;51.128;4.566;2023-05-16T12:13:19;5.25;;;1.60;;
10387;SDS011;5240;51.128;4.566;2023-05-16T12:31:37;5.53;;;1.75;;
10387;SDS011;5240;51.128;4.566;2023-05-16T12:34:16;6.22;;;1.50;;
10387;SDS011;5240;51.128;4.566;2023-05-16T12:36:46;4.35;;;1.80;;
10387;SDS011;5240;51.128;4.566;2023-05-16T12:44:29;3.28;;;1.40;;
10387;SDS011;5240;51.128;4.566;2023-05-16T12:49:34;7.65;;;1.80;;
10387;SDS011;5240;51.128;4.566;2023-05-16T13:19:32;5.10;;;1.50;;
10387;SDS011;5240;51.128;4.566;2023-05-16T13:22:02;4.43;;;1.60;;
10387;SDS011;5240;51.128;4.566;2023-05-16T13:24:30;6.13;;;1.80;;
10387;SDS011;5240;51.128;4.566;2023-05-16T13:32:09;4.03;;;1.80;;
10387;SDS011;5240;51.128;4.566;2023-05-16T13:34:36;6.32;;;1.88;;
10387;SDS011;5240;51.128;4.566;2023-05-16T13:37:04;5.25;;;1.77;;
10387;SDS011;5240;51.128;4.566;2023-05-16T13:39:32;4.95;;;1.50;;
10387;SDS011;5240;51.128;4.566;2023-05-16T13:57:33;5.05;;;1.70;;
10387;SDS011;5240;51.128;4.566;2023-05-16T14:00:02;2.97;;;1.50;;
10387;SDS011;5240;51.128;4.566;2023-05-16T14:02:36;8.48;;;1.70;;
10387;SDS011;5240;51.128;4.566;2023-05-16T14:05:05;4.47;;;1.50;;
10387;SDS011;5240;51.128;4.566;2023-05-16T14:07:33;3.72;;;1.58;;
10387;SDS011;5240;51.128;4.566;2023-05-16T14:10:08;4.57;;;1.48;;
10387;SDS011;5240;51.128;4.566;2023-05-16T14:15:51;3.65;;;1.67;;
10387;SDS011;5240;51.128;4.566;2023-05-16T14:18:19;5.55;;;1.48;;
10387;SDS011;5240;51.128;4.566;2023-05-16T14:20:48;5.18;;;1.52;;
10387;SDS011;5240;51.128;4.566;2023-05-16T14:23:22;3.80;;;1.67;;
10387;SDS011;5240;51.128;4.566;2023-05-16T14:25:49;4.95;;;1.55;;
10387;SDS011;5240;51.128;4.566;2023-05-16T14:28:18;4.82;;;1.50;;
10387;SDS011;5240;51.128;4.566;2023-05-16T14:51:30;4.00;;;1.30;;
10387;SDS011;5240;51.128;4.566;2023-05-16T14:53:57;3.03;;;1.38;;
10387;SDS011;5240;51.128;4.566;2023-05-16T14:56:24;5.47;;;1.70;;
10387;SDS011;5240;51.128;4.566;2023-05-16T14:58:52;2.03;;;1.33;;
10387;SDS011;5240;51.128;4.566;2023-05-16T15:01:19;3.95;;;1.73;;
10387;SDS011;5240;51.128;4.566;2023-05-16T15:03:46;1.50;;;1.02;;
10387;SDS011;5240;51.128;4.566;2023-05-16T15:06:13;2.70;;;1.60;;
10387;SDS011;5240;51.128;4.566;2023-05-16T15:08:42;3.78;;;1.70;;
10387;SDS011;5240;51.128;4.566;2023-05-16T15:11:10;4.80;;;1.58;;
10387;SDS011;5240;51.128;4.566;2023-05-16T15:13:38;3.53;;;1.55;;
10387;SDS011;5240;51.128;4.566;2023-05-16T15:16:05;3.90;;;1.60;;
10387;SDS011;5240;51.128;4.566;2023-05-16T15:18:32;9.43;;;1.90;;
10387;SDS011;5240;51.128;4.566;2023-05-16T15:20:59;4.25;;;1.95;;
10387;SDS011;5240;51.128;4.566;2023-05-16T15:23:26;4.97;;;1.52;;
10387;SDS011;5240;51.128;4.566;2023-05-16T15:25:55;4.57;;;1.52;;
10387;SDS011;5240;51.128;4.566;2023-05-16T15:28:22;5.68;;;1.55;;
10387;SDS011;5240;51.128;4.566;2023-05-16T15:30:49;5.05;;;2.05;;
10387;SDS011;5240;51.128;4.566;2023-05-16T15:33:16;5.30;;;1.73;;
10387;SDS011;5240;51.128;4.566;2023-05-16T15:35:43;2.53;;;1.50;;
10387;SDS011;5240;51.128;4.566;2023-05-16T15:38:10;2.88;;;1.52;;
10387;SDS011;5240;51.128;4.566;2023-05-16T15:40:38;3.33;;;1.40;;
10387;SDS011;5240;51.128;4.566;2023-05-16T15:43:06;7.97;;;1.52;;
10387;SDS011;5240;51.128;4.566;2023-05-16T15:45:33;4.88;;;1.70;;
10387;SDS011;5240;51.128;4.566;2023-05-16T15:48:01;5.43;;;1.50;;
10387;SDS011;5240;51.128;4.566;2023-05-16T15:50:31;3.28;;;1.40;;
10387;SDS011;5240;51.128;4.566;2023-05-16T15:52:58;2.50;;;1.38;;
10387;SDS011;5240;51.128;4.566;2023-05-16T15:55:25;3.30;;;1.50;;
10387;SDS011;5240;51.128;4.566;2023-05-16T15:57:52;3.38;;;1.35;;
10387;SDS011;5240;51.128;4.566;2023-05-16T16:00:23;7.03;;;1.95;;
10387;SDS011;5240;51.128;4.566;2023-05-16T16:02:50;5.13;;;1.70;;
10387;SDS011;5240;51.128;4.566;2023-05-16T16:05:17;4.30;;;1.55;;
10387;SDS011;5240;51.128;4.566;2023-05-16T16:07:45;4.95;;;1.63;;
10387;SDS011;5240;51.128;4.566;2023-05-16T16:10:12;2.50;;;1.30;;
10387;SDS011;5240;51.128;4.566;2023-05-16T16:12:39;4.97;;;1.38;;
10387;SDS011;5240;51.128;4.566;2023-05-16T16:15:08;4.80;;;1.45;;
10387;SDS011;5240;51.128;4.566;2023-05-16T16:17:37;4.22;;;1.40;;
10387;SDS011;5240;51.128;4.566;2023-05-16T16:20:04;5.72;;;1.52;;
10387;SDS011;5240;51.128;4.566;2023-05-16T16:22:32;6.53;;;1.40;;
10387;SDS011;5240;51.128;4.566;2023-05-16T16:24:59;4.00;;;1.38;;
10387;SDS011;5240;51.128;4.566;2023-05-16T16:27:26;4.30;;;1.55;;
10387;SDS011;5240;51.128;4.566;2023-05-16T16:29:53;4.18;;;1.50;;
10387;SDS011;5240;51.128;4.566;2023-05-16T16:32:20;3.17;;;1.33;;
10387;SDS011;5240;51.128;4.566;2023-05-16T16:34:48;3.70;;;1.38;;
10387;SDS011;5240;51.128;4.566;2023-05-16T16:37:15;2.55;;;1.30;;
10387;SDS011;5240;51.128;4.566;2023-05-16T16:39:42;2.60;;;1.30;;
10387;SDS011;5240;51.128;4.566;2023-05-16T16:42:09;3.35;;;1.42;;
10387;SDS011;5240;51.128;4.566;2023-05-16T16:44:36;3.13;;;1.60;;
10387;SDS011;5240;51.128;4.566;2023-05-16T16:47:04;2.33;;;1.30;;
10387;SDS011;5240;51.128;4.566;2023-05-16T16:49:31;2.60;;;1.40;;
10387;SDS011;5240;51.128;4.566;2023-05-16T16:51:59;3.72;;;1.23;;
10387;SDS011;5240;51.128;4.566;2023-05-16T16:54:26;3.13;;;1.40;;
10387;SDS011;5240;51.128;4.566;2023-05-16T16:56:54;3.90;;;1.20;;
10387;SDS011;5240;51.128;4.566;2023-05-16T16:59:21;1.77;;;1.00;;
10387;SDS011;5240;51.128;4.566;2023-05-16T17:01:48;3.97;;;1.27;;
10387;SDS011;5240;51.128;4.566;2023-05-16T17:04:15;2.45;;;1.20;;
10387;SDS011;5240;51.128;4.566;2023-05-16T17:06:42;2.47;;;1.10;;
10387;SDS011;5240;51.128;4.566;2023-05-16T17:09:11;3.22;;;1.48;;
10387;SDS011;5240;51.128;4.566;2023-05-16T17:11:39;2.40;;;1.30;;
10387;SDS011;5240;51.128;4.566;2023-05-16T17:14:06;2.95;;;1.33;;
10387;SDS011;5240;51.128;4.566;2023-05-16T17:16:34;3.72;;;1.67;;
10387;SDS011;5240;51.128;4.566;2023-05-16T17:19:02;4.20;;;1.30;;
10387;SDS011;5240;51.128;4.566;2023-05-16T17:21:29;3.17;;;1.55;;
10387;SDS011;5240;51.128;4.566;2023-05-16T17:23:58;6.13;;;1.73;;
10387;SDS011;5240;51.128;4.566;2023-05-16T17:26:27;2.03;;;1.10;;
10387;SDS011;5240;51.128;4.566;2023-05-16T17:28:55;3.75;;;1.40;;
10387;SDS011;5240;51.128;4.566;2023-05-16T17:31:24;3.70;;;1.40;;
10387;SDS011;5240;51.128;4.566;2023-05-16T17:33:51;4.20;;;1.40;;
10387;SDS011;5240;51.128;4.566;2023-05-16T17:36:18;3.30;;;1.60;;
10387;SDS011;5240;51.128;4.566;2023-05-16T17:38:45;5.78;;;1.60;;
10387;SDS011;5240;51.128;4.566;2023-05-16T17:41:12;3.55;;;1.55;;
10387;SDS011;5240;51.128;4.566;2023-05-16T17:43:41;3.10;;;1.35;;
10387;SDS011;5240;51.128;4.566;2023-05-16T17:46:08;4.50;;;1.80;;
10387;SDS011;5240;51.128;4.566;2023-05-16T17:48:35;3.90;;;1.52;;
10387;SDS011;5240;51.128;4.566;2023-05-16T17:51:03;4.68;;;1.48;;
10387;SDS011;5240;51.128;4.566;2023-05-16T17:53:30;3.20;;;1.45;;
10387;SDS011;5240;51.128;4.566;2023-05-16T17:55:58;6.28;;;1.70;;
10387;SDS011;5240;51.128;4.566;2023-05-16T17:58:25;4.68;;;1.67;;
10387;SDS011;5240;51.128;4.566;2023-05-16T18:00:53;6.82;;;1.50;;
10387;SDS011;5240;51.128;4.566;2023-05-16T18:03:21;3.30;;;1.48;;
10387;SDS011;5240;51.128;4.566;2023-05-16T18:05:48;3.78;;;2.10;;
10387;SDS011;5240;51.128;4.566;2023-05-16T18:08:15;5.03;;;1.55;;
10387;SDS011;5240;51.128;4.566;2023-05-16T18:10:42;5.53;;;1.98;;
10387;SDS011;5240;51.128;4.566;2023-05-16T18:13:10;4.40;;;1.50;;
10387;SDS011;5240;51.128;4.566;2023-05-16T18:15:37;4.05;;;2.00;;
10387;SDS011;5240;51.128;4.566;2023-05-16T18:18:06;4.18;;;1.80;;
10387;SDS011;5240;51.128;4.566;2023-05-16T18:20:33;5.15;;;2.03;;
10387;SDS011;5240;51.128;4.566;2023-05-16T18:23:00;4.97;;;2.15;;
10387;SDS011;5240;51.128;4.566;2023-05-16T18:25:28;5.97;;;1.90;;
10387;SDS011;5240;51.128;4.566;2023-05-16T18:27:55;3.72;;;1.88;;
10387;SDS011;5240;51.128;4.566;2023-05-16T18:30:22;4.50;;;2.20;;
10387;SDS011;5240;51.128;4.566;2023-05-16T18:32:49;4.50;;;1.90;;
10387;SDS011;5240;51.128;4.566;2023-05-16T18:35:18;6.57;;;2.20;;
10387;SDS011;5240;51.128;4.566;2023-05-16T18:37:45;5.57;;;2.28;;
10387;SDS011;5240;51.128;4.566;2023-05-16T18:40:12;8.43;;;2.35;;
10387;SDS011;5240;51.128;4.566;2023-05-16T18:42:39;8.18;;;2.70;;
10387;SDS011;5240;51.128;4.566;2023-05-16T18:45:06;6.65;;;2.20;;
10387;SDS011;5240;51.128;4.566;2023-05-16T18:47:34;7.00;;;2.50;;
10387;SDS011;5240;51.128;4.566;2023-05-16T18:50:01;6.47;;;2.40;;
10387;SDS011;5240;51.128;4.566;2023-05-16T18:52:30;5.68;;;2.25;;
10387;SDS011;5240;51.128;4.566;2023-05-16T18:54:59;4.65;;;2.05;;
10387;SDS011;5240;51.128;4.566;2023-05-16T18:57:26;5.57;;;2.03;;
10387;SDS011;5240;51.128;4.566;2023-05-16T18:59:53;6.55;;;2.90;;
10387;SDS011;5240;51.128;4.566;2023-05-16T19:02:20;6.10;;;2.40;;
10387;SDS011;5240;51.128;4.566;2023-05-16T19:04:47;7.47;;;2.60;;
10387;SDS011;5240;51.128;4.566;2023-05-16T19:07:14;6.25;;;2.50;;
10387;SDS011;5240;51.128;4.566;2023-05-16T19:09:43;4.38;;;2.28;;
10387;SDS011;5240;51.128;4.566;2023-05-16T19:12:11;9.07;;;2.83;;
10387;SDS011;5240;51.128;4.566;2023-05-16T19:14:38;6.88;;;2.88;;
10387;SDS011;5240;51.128;4.566;2023-05-16T19:17:05;9.30;;;3.38;;
10387;SDS011;5240;51.128;4.566;2023-05-16T19:19:33;10.27;;;2.88;;
10387;SDS011;5240;51.128;4.566;2023-05-16T19:22:00;8.40;;;2.80;;
10387;SDS011;5240;51.128;4.566;2023-05-16T19:24:27;9.82;;;3.20;;
10387;SDS011;5240;51.128;4.566;2023-05-16T19:26:56;4.65;;;2.65;;
10387;SDS011;5240;51.128;4.566;2023-05-16T19:29:23;6.18;;;2.67;;
10387;SDS011;5240;51.128;4.566;2023-05-16T19:31:50;9.63;;;3.08;;
10387;SDS011;5240;51.128;4.566;2023-05-16T19:34:18;7.97;;;2.88;;
10387;SDS011;5240;51.128;4.566;2023-05-16T19:36:45;9.43;;;3.10;;
10387;SDS011;5240;51.128;4.566;2023-05-16T19:39:12;10.23;;;2.90;;
10387;SDS011;5240;51.128;4.566;2023-05-16T19:41:39;8.77;;;2.70;;
10387;SDS011;5240;51.128;4.566;2023-05-16T19:44:07;8.27;;;2.90;;
10387;SDS011;5240;51.128;4.566;2023-05-16T19:46:34;9.13;;;2.78;;
10387;SDS011;5240;51.128;4.566;2023-05-16T19:49:02;8.27;;;2.70;;
10387;SDS011;5240;51.128;4.566;2023-05-16T19:51:29;10.88;;;3.00;;
10387;SDS011;5240;51.128;4.566;2023-05-16T19:53:56;10.15;;;2.58;;
10387;SDS011;5240;51.128;4.566;2023-05-16T19:56:23;10.50;;;2.90;;
10387;SDS011;5240;51.128;4.566;2023-05-16T19:58:51;8.15;;;2.45;;
10387;SDS011;5240;51.128;4.566;2023-05-16T20:01:22;9.85;;;2.97;;
10387;SDS011;5240;51.128;4.566;2023-05-16T20:03:49;8.45;;;2.70;;
10387;SDS011;5240;51.128;4.566;2023-05-16T20:06:16;7.30;;;2.53;;
10387;SDS011;5240;51.128;4.566;2023-05-16T20:08:43;5.65;;;2.30;;
10387;SDS011;5240;51.128;4.566;2023-05-16T20:11:10;6.60;;;2.55;;
10387;SDS011;5240;51.128;4.566;2023-05-16T20:13:37;10.05;;;3.25;;
10387;SDS011;5240;51.128;4.566;2023-05-16T20:16:04;7.78;;;2.40;;
10387;SDS011;5240;51.128;4.566;2023-05-16T20:18:33;6.68;;;2.58;;
10387;SDS011;5240;51.128;4.566;2023-05-16T20:21:00;9.45;;;2.70;;
10387;SDS011;5240;51.128;4.566;2023-05-16T20:23:27;8.27;;;2.60;;
10387;SDS011;5240;51.128;4.566;2023-05-16T20:25:54;10.15;;;2.72;;
10387;SDS011;5240;51.128;4.566;2023-05-16T20:28:21;7.15;;;2.33;;
10387;SDS011;5240;51.128;4.566;2023-05-16T20:30:48;9.50;;;2.40;;
10387;SDS011;5240;51.128;4.566;2023-05-16T20:33:15;9.27;;;2.30;;
10387;SDS011;5240;51.128;4.566;2023-05-16T20:35:44;8.10;;;2.53;;
10387;SDS011;5240;51.128;4.566;2023-05-16T20:38:12;8.60;;;2.60;;
10387;SDS011;5240;51.128;4.566;2023-05-16T20:40:39;6.40;;;2.15;;